sensor_id;sensor_type;location;lat;lon;timestamp;pressure;altitude;pressure_sealevel;temperature;humidity
21273;BME280;36726;52.328;10.552;2023-03-21T00:00:32;100684.59;;;8.71;100.00
21273;BME280;36726;52.328;10.552;2023-03-21T00:02:59;100680.25;;;8.73;100.00
21273;BME280;36726;52.328;10.552;2023-03-21T00:05:26;100671.41;;;8.71;100.00
21273;BME280;36726;52.328;10.552;2023-03-21T00:07:53;100672.25;;;8.70;100.00
21273;BME280;36726;52.328;10.552;2023-03-21T00:10:20;100680.25;;;8.73;100.00
21273;BME280;36726;52.328;10.552;2023-03-21T00:13:02;100675.00;;;8.75;100.00
21273;BME280;36726;52.328;10.552;2023-03-21T00:15:31;100670.66;;;8.77;100.00
21273;BME280;36726;52.328;10.552;2023-03-21T00:18:17;100669.75;;;8.76;100.00
21273;BME280;36726;52.328;10.552;2023-03-21T00:20:57;100673.25;;;8.75;100.00
21273;BME280;36726;52.328;10.552;2023-03-21T00:23:44;100670.63;;;8.75;100.00
21273;BME280;36726;52.328;10.552;2023-03-21T00:26:13;100664.41;;;8.73;100.00
21273;BME280;36726;52.328;10.552;2023-03-21T00:28:41;100662.63;;;8.72;100.00
21273;BME280;36726;52.328;10.552;2023-03-21T00:31:08;100662.63;;;8.72;100.00
21273;BME280;36726;52.328;10.552;2023-03-21T00:33:35;100667.09;;;8.75;100.00
21273;BME280;36726;52.328;10.552;2023-03-21T00:36:05;100660.09;;;8.77;100.00
21273;BME280;36726;52.328;10.552;2023-03-21T00:38:33;100663.66;;;8.79;100.00
21273;BME280;36726;52.328;10.552;2023-03-21T00:41:03;100655.81;;;8.82;100.00
21273;BME280;36726;52.328;10.552;2023-03-21T00:43:42;100660.22;;;8.83;100.00
21273;BME280;36726;52.328;10.552;2023-03-21T00:46:09;100662.03;;;8.85;100.00
21273;BME280;36726;52.328;10.552;2023-03-21T00:48:37;100656.81;;;8.88;100.00
21273;BME280;36726;52.328;10.552;2023-03-21T00:51:12;100657.72;;;8.90;100.00
21273;BME280;36726;52.328;10.552;2023-03-21T00:53:41;100641.94;;;8.92;100.00
21273;BME280;36726;52.328;10.552;2023-03-21T00:56:08;100642.84;;;8.92;100.00
21273;BME280;36726;52.328;10.552;2023-03-21T00:58:35;100642.81;;;8.91;100.00
21273;BME280;36726;52.328;10.552;2023-03-21T01:01:01;100634.88;;;8.89;100.00
21273;BME280;36726;52.328;10.552;2023-03-21T01:03:32;100630.41;;;8.87;100.00
21273;BME280;36726;52.328;10.552;2023-03-21T01:05:59;100629.44;;;8.83;100.00
21273;BME280;36726;52.328;10.552;2023-03-21T01:08:36;100631.16;;;8.81;100.00
21273;BME280;36726;52.328;10.552;2023-03-21T01:11:21;100630.34;;;8.84;100.00
21273;BME280;36726;52.328;10.552;2023-03-21T01:13:49;100627.75;;;8.85;100.00
21273;BME280;36726;52.328;10.552;2023-03-21T01:16:27;100619.81;;;8.84;100.00
21273;BME280;36726;52.328;10.552;2023-03-21T01:18:54;100625.06;;;8.82;100.00
21273;BME280;36726;52.328;10.552;2023-03-21T01:21:21;100623.22;;;8.80;100.00
21273;BME280;36726;52.328;10.552;2023-03-21T01:23:48;100621.38;;;8.76;100.00
21273;BME280;36726;52.328;10.552;2023-03-21T01:26:15;100617.91;;;8.77;100.00
21273;BME280;36726;52.328;10.552;2023-03-21T01:28:43;100618.81;;;8.77;100.00
21273;BME280;36726;52.328;10.552;2023-03-21T01:31:12;100617.84;;;8.74;100.00
21273;BME280;36726;52.328;10.552;2023-03-21T01:33:40;100617.84;;;8.74;100.00
21273;BME280;36726;52.328;10.552;2023-03-21T01:36:12;100622.28;;;8.76;100.00
21273;BME280;36726;52.328;10.552;2023-03-21T01:38:41;100615.25;;;8.75;100.00
21273;BME280;36726;52.328;10.552;2023-03-21T01:41:28;100618.69;;;8.73;100.00
21273;BME280;36726;52.328;10.552;2023-03-21T01:44:17;100618.66;;;8.71;100.00
21273;BME280;36726;52.328;10.552;2023-03-21T01:46:49;100611.59;;;8.70;100.00
21273;BME280;36726;52.328;10.552;2023-03-21T01:49:46;100612.47;;;8.69;100.00
21273;BME280;36726;52.328;10.552;2023-03-21T01:52:22;100601.03;;;8.70;100.00
21273;BME280;36726;52.328;10.552;2023-03-21T01:55:08;100601.03;;;8.70;100.00
21273;BME280;36726;52.328;10.552;2023-03-21T01:57:52;100603.63;;;8.67;100.00
21273;BME280;36726;52.328;10.552;2023-03-21T02:00:37;100601.91;;;8.69;100.00
21273;BME280;36726;52.328;10.552;2023-03-21T02:03:18;100601.94;;;8.71;100.00
21273;BME280;36726;52.328;10.552;2023-03-21T02:06:15;100598.50;;;8.73;100.00
21273;BME280;36726;52.328;10.552;2023-03-21T02:08:46;100596.78;;;8.75;100.00
21273;BME280;36726;52.328;10.552;2023-03-21T02:11:15;100592.44;;;8.77;100.00
21273;BME280;36726;52.328;10.552;2023-03-21T02:13:42;100598.56;;;8.78;100.00
21273;BME280;36726;52.328;10.552;2023-03-21T02:19:18;100586.34;;;8.81;100.00
21273;BME280;36726;52.328;10.552;2023-03-21T02:22:16;100589.88;;;8.82;100.00
21273;BME280;36726;52.328;10.552;2023-03-21T02:25:10;100588.97;;;8.81;100.00
21273;BME280;36726;52.328;10.552;2023-03-21T02:27:58;100581.88;;;8.77;100.00
21273;BME280;36726;52.328;10.552;2023-03-21T02:30:52;100581.03;;;8.80;100.00
21273;BME280;36726;52.328;10.552;2023-03-21T02:33:53;100574.84;;;8.79;100.00
21273;BME280;36726;52.328;10.552;2023-03-21T02:39:52;100571.28;;;8.76;100.00
21273;BME280;36726;52.328;10.552;2023-03-21T02:42:36;100572.09;;;8.72;100.00
21273;BME280;36726;52.328;10.552;2023-03-21T02:45:18;100572.03;;;8.70;100.00
21273;BME280;36726;52.328;10.552;2023-03-21T02:48:00;100577.31;;;8.70;100.00
21273;BME280;36726;52.328;10.552;2023-03-21T02:50:35;100573.84;;;8.71;100.00
21273;BME280;36726;52.328;10.552;2023-03-21T02:53:07;100566.81;;;8.72;100.00
21273;BME280;36726;52.328;10.552;2023-03-21T02:55:36;100571.19;;;8.71;100.00
21273;BME280;36726;52.328;10.552;2023-03-21T02:58:07;100566.81;;;8.72;100.00
21273;BME280;36726;52.328;10.552;2023-03-21T03:00:45;100563.31;;;8.73;100.00
21273;BME280;36726;52.328;10.552;2023-03-21T03:03:22;100569.50;;;8.73;100.00
21273;BME280;36726;52.328;10.552;2023-03-21T03:06:01;100563.34;;;8.74;100.00
21273;BME280;36726;52.328;10.552;2023-03-21T03:09:06;100565.13;;;8.75;100.00
21273;BME280;36726;52.328;10.552;2023-03-21T03:11:35;100566.91;;;8.76;100.00
21273;BME280;36726;52.328;10.552;2023-03-21T03:25:20;100561.78;;;8.84;100.00
21273;BME280;36726;52.328;10.552;2023-03-21T03:28:07;100553.06;;;8.86;100.00
21273;BME280;36726;52.328;10.552;2023-03-21T03:30:35;100557.50;;;8.90;100.00
21273;BME280;36726;52.328;10.552;2023-03-21T03:33:12;100550.59;;;8.95;100.00
21273;BME280;36726;52.328;10.552;2023-03-21T03:35:43;100552.41;;;8.99;100.00
21273;BME280;36726;52.328;10.552;2023-03-21T03:38:28;100556.84;;;9.02;100.00
21273;BME280;36726;52.328;10.552;2023-03-21T03:41:01;100553.34;;;9.03;100.00
21273;BME280;36726;52.328;10.552;2023-03-21T03:43:47;100553.41;;;9.06;100.00
21273;BME280;36726;52.328;10.552;2023-03-21T03:46:42;100554.38;;;9.09;100.00
21273;BME280;36726;52.328;10.552;2023-03-21T03:49:19;100545.66;;;9.15;100.00
21273;BME280;36726;52.328;10.552;2023-03-21T03:51:51;100551.88;;;9.17;100.00
21273;BME280;36726;52.328;10.552;2023-03-21T03:54:39;100551.00;;;9.19;100.00
21273;BME280;36726;52.328;10.552;2023-03-21T03:57:07;100549.28;;;9.21;100.00
21273;BME280;36726;52.328;10.552;2023-03-21T03:59:36;100550.19;;;9.22;100.00
21273;BME280;36726;52.328;10.552;2023-03-21T04:02:23;100543.22;;;9.25;100.00
21273;BME280;36726;52.328;10.552;2023-03-21T04:04:51;100547.63;;;9.26;100.00
21273;BME280;36726;52.328;10.552;2023-03-21T04:07:20;100545.84;;;9.25;100.00
21273;BME280;36726;52.328;10.552;2023-03-21T04:09:49;100538.84;;;9.27;100.00
21273;BME280;36726;52.328;10.552;2023-03-21T04:12:18;100539.78;;;9.29;100.00
21273;BME280;36726;52.328;10.552;2023-03-21T04:15:11;100543.25;;;9.27;100.00
21273;BME280;36726;52.328;10.552;2023-03-21T04:17:42;100537.06;;;9.26;100.00
21273;BME280;36726;52.328;10.552;2023-03-21T04:20:11;100543.25;;;9.28;100.00
21273;BME280;36726;52.328;10.552;2023-03-21T04:22:49;100534.50;;;9.29;100.00
21273;BME280;36726;52.328;10.552;2023-03-21T04:25:17;100544.19;;;9.32;100.00
21273;BME280;36726;52.328;10.552;2023-03-21T04:27:57;100534.53;;;9.32;100.00
21273;BME280;36726;52.328;10.552;2023-03-21T04:30:35;100531.91;;;9.32;100.00
21273;BME280;36726;52.328;10.552;2023-03-21T04:33:14;100531.91;;;9.32;100.00
21273;BME280;36726;52.328;10.552;2023-03-21T04:35:48;100529.28;;;9.34;100.00
21273;BME280;36726;52.328;10.552;2023-03-21T04:38:15;100535.38;;;9.30;100.00
21273;BME280;36726;52.328;10.552;2023-03-21T04:40:42;100531.88;;;9.31;100.00
21273;BME280;36726;52.328;10.552;2023-03-21T04:43:08;100534.53;;;9.32;100.00
21273;BME280;36726;52.328;10.552;2023-03-21T04:45:38;100535.47;;;9.34;100.00
21273;BME280;36726;52.328;10.552;2023-03-21T04:48:08;100528.44;;;9.35;100.00
21273;BME280;36726;52.328;10.552;2023-03-21T04:50:34;100528.44;;;9.35;100.00
21273;BME280;36726;52.328;10.552;2023-03-21T04:53:04;100531.03;;;9.33;100.00
21273;BME280;36726;52.328;10.552;2023-03-21T04:55:31;100524.91;;;9.34;100.00
21273;BME280;36726;52.328;10.552;2023-03-21T04:57:58;100524.03;;;9.35;100.00
21273;BME280;36726;52.328;10.552;2023-03-21T05:00:25;100530.22;;;9.37;100.00
21273;BME280;36726;52.328;10.552;2023-03-21T05:02:51;100531.09;;;9.36;100.00
21273;BME280;36726;52.328;10.552;2023-03-21T05:05:19;100531.13;;;9.38;100.00
21273;BME280;36726;52.328;10.552;2023-03-21T05:07:46;100526.75;;;9.38;100.00
21273;BME280;36726;52.328;10.552;2023-03-21T05:10:12;100528.50;;;9.39;100.00
21273;BME280;36726;52.328;10.552;2023-03-21T05:12:40;100522.31;;;9.39;100.00
21273;BME280;36726;52.328;10.552;2023-03-21T05:15:07;100528.50;;;9.39;100.00
21273;BME280;36726;52.328;10.552;2023-03-21T05:17:35;100528.53;;;9.42;100.00
21273;BME280;36726;52.328;10.552;2023-03-21T05:20:02;100531.19;;;9.42;100.00
21273;BME280;36726;52.328;10.552;2023-03-21T05:22:31;100536.50;;;9.44;100.00
21273;BME280;36726;52.328;10.552;2023-03-21T05:25:08;100532.06;;;9.41;100.00
21273;BME280;36726;52.328;10.552;2023-03-21T05:27:56;100532.03;;;9.38;100.00
21273;BME280;36726;52.328;10.552;2023-03-21T05:30:27;100535.47;;;9.36;100.00
21273;BME280;36726;52.328;10.552;2023-03-21T05:32:57;100539.00;;;9.35;100.00
21273;BME280;36726;52.328;10.552;2023-03-21T05:35:24;100532.81;;;9.33;100.00
21273;BME280;36726;52.328;10.552;2023-03-21T05:37:54;100538.94;;;9.33;100.00
21273;BME280;36726;52.328;10.552;2023-03-21T05:40:23;100535.44;;;9.33;100.00
21273;BME280;36726;52.328;10.552;2023-03-21T05:42:50;100529.25;;;9.32;100.00
21273;BME280;36726;52.328;10.552;2023-03-21T05:45:20;100534.56;;;9.34;100.00
21273;BME280;36726;52.328;10.552;2023-03-21T05:47:48;100538.16;;;9.39;100.00
21273;BME280;36726;52.328;10.552;2023-03-21T05:50:15;100531.16;;;9.41;100.00
21273;BME280;36726;52.328;10.552;2023-03-21T05:52:49;100535.63;;;9.43;100.00
21273;BME280;36726;52.328;10.552;2023-03-21T05:55:16;100530.38;;;9.47;100.00
21273;BME280;36726;52.328;10.552;2023-03-21T05:57:43;100535.78;;;9.53;100.00
21273;BME280;36726;52.328;10.552;2023-03-21T06:00:17;100534.03;;;9.55;100.00
21273;BME280;36726;52.328;10.552;2023-03-21T06:03:06;100530.66;;;9.63;100.00
21273;BME280;36726;52.328;10.552;2023-03-21T06:06:05;100528.97;;;9.68;100.00
21273;BME280;36726;52.328;10.552;2023-03-21T06:08:43;100530.78;;;9.72;100.00
21273;BME280;36726;52.328;10.552;2023-03-21T06:11:28;100531.75;;;9.79;100.00
21273;BME280;36726;52.328;10.552;2023-03-21T06:14:14;100536.19;;;9.80;100.00
21273;BME280;36726;52.328;10.552;2023-03-21T06:16:43;100532.69;;;9.82;100.00
21273;BME280;36726;52.328;10.552;2023-03-21T06:19:10;100533.63;;;9.86;100.00
21273;BME280;36726;52.328;10.552;2023-03-21T06:21:56;100536.38;;;9.92;100.00
21273;BME280;36726;52.328;10.552;2023-03-21T06:24:25;100532.94;;;9.99;100.00
21273;BME280;36726;52.328;10.552;2023-03-21T06:26:52;100524.22;;;10.03;100.00
21273;BME280;36726;52.328;10.552;2023-03-21T06:29:19;100528.69;;;10.08;100.00
21273;BME280;36726;52.328;10.552;2023-03-21T06:31:48;100519.13;;;10.15;100.00
21273;BME280;36726;52.328;10.552;2023-03-21T06:34:15;100519.22;;;10.21;100.00
21273;BME280;36726;52.328;10.552;2023-03-21T06:36:41;100525.44;;;10.26;100.00
21273;BME280;36726;52.328;10.552;2023-03-21T06:39:12;100529.94;;;10.31;100.00
21273;BME280;36726;52.328;10.552;2023-03-21T06:41:39;100524.72;;;10.36;100.00
21273;BME280;36726;52.328;10.552;2023-03-21T06:44:06;100521.22;;;10.40;100.00
21273;BME280;36726;52.328;10.552;2023-03-21T06:46:41;100529.22;;;10.43;100.00
21273;BME280;36726;52.328;10.552;2023-03-21T06:49:08;100532.75;;;10.45;100.00
21273;BME280;36726;52.328;10.552;2023-03-21T06:51:35;100531.91;;;10.49;100.00
21273;BME280;36726;52.328;10.552;2023-03-21T06:54:11;100530.22;;;10.54;100.00
21273;BME280;36726;52.328;10.552;2023-03-21T06:56:47;100527.66;;;10.62;100.00
21273;BME280;36726;52.328;10.552;2023-03-21T06:59:21;100527.75;;;10.68;100.00
21273;BME280;36726;52.328;10.552;2023-03-21T07:01:53;100529.56;;;10.75;100.00
21273;BME280;36726;52.328;10.552;2023-03-21T07:04:19;100521.69;;;10.78;100.00
21273;BME280;36726;52.328;10.552;2023-03-21T07:06:47;100535.78;;;10.75;100.00
21273;BME280;36726;52.328;10.552;2023-03-21T07:09:13;100538.44;;;10.78;100.00
21273;BME280;36726;52.328;10.552;2023-03-21T07:11:43;100531.41;;;10.82;100.00
21273;BME280;36726;52.328;10.552;2023-03-21T07:14:09;100536.78;;;10.88;100.00
21273;BME280;36726;52.328;10.552;2023-03-21T07:16:36;100527.19;;;10.97;100.00
21273;BME280;36726;52.328;10.552;2023-03-21T07:19:03;100526.41;;;11.09;100.00
21273;BME280;36726;52.328;10.552;2023-03-21T07:21:30;100528.31;;;11.20;99.62
21273;BME280;36726;52.328;10.552;2023-03-21T07:23:58;100532.72;;;11.23;98.24
21273;BME280;36726;52.328;10.552;2023-03-21T07:26:24;100530.97;;;11.22;98.04
21273;BME280;36726;52.328;10.552;2023-03-21T07:28:51;100530.06;;;11.23;97.16
21273;BME280;36726;52.328;10.552;2023-03-21T07:31:17;100529.22;;;11.25;97.41
21273;BME280;36726;52.328;10.552;2023-03-21T07:33:46;100532.84;;;11.33;97.01
21273;BME280;36726;52.328;10.552;2023-03-21T07:36:14;100531.13;;;11.37;95.79
21273;BME280;36726;52.328;10.552;2023-03-21T07:38:42;100530.22;;;11.36;95.80
21273;BME280;36726;52.328;10.552;2023-03-21T07:41:09;100532.88;;;11.36;95.59
21273;BME280;36726;52.328;10.552;2023-03-21T07:43:36;100533.78;;;11.37;95.68
21273;BME280;36726;52.328;10.552;2023-03-21T07:46:08;100531.06;;;11.35;95.91
21273;BME280;36726;52.328;10.552;2023-03-21T07:48:34;100527.59;;;11.39;96.25
21273;BME280;36726;52.328;10.552;2023-03-21T07:51:02;100527.63;;;11.42;95.89
21273;BME280;36726;52.328;10.552;2023-03-21T07:53:29;100530.28;;;11.44;95.03
21273;BME280;36726;52.328;10.552;2023-03-21T07:55:55;100530.28;;;11.42;94.57
21273;BME280;36726;52.328;10.552;2023-03-21T07:58:23;100531.06;;;11.35;93.59
21273;BME280;36726;52.328;10.552;2023-03-21T08:00:50;100524.94;;;11.36;93.62
21273;BME280;36726;52.328;10.552;2023-03-21T08:03:17;100527.56;;;11.36;93.78
21273;BME280;36726;52.328;10.552;2023-03-21T08:05:45;100521.44;;;11.39;93.79
21273;BME280;36726;52.328;10.552;2023-03-21T08:08:11;100524.09;;;11.45;94.14
21273;BME280;36726;52.328;10.552;2023-03-21T08:10:38;100525.91;;;11.49;93.83
21273;BME280;36726;52.328;10.552;2023-03-21T08:13:05;100527.75;;;11.58;93.84
21273;BME280;36726;52.328;10.552;2023-03-21T08:15:31;100523.38;;;11.63;92.71
21273;BME280;36726;52.328;10.552;2023-03-21T08:17:59;100519.84;;;11.64;92.83
21273;BME280;36726;52.328;10.552;2023-03-21T08:20:26;100520.81;;;11.69;92.99
21273;BME280;36726;52.328;10.552;2023-03-21T08:22:53;100514.66;;;11.70;92.69
21273;BME280;36726;52.328;10.552;2023-03-21T08:25:20;100520.78;;;11.66;92.69
21273;BME280;36726;52.328;10.552;2023-03-21T08:27:48;100521.59;;;11.59;91.63
21273;BME280;36726;52.328;10.552;2023-03-21T08:30:18;100522.44;;;11.58;92.30
21273;BME280;36726;52.328;10.552;2023-03-21T08:32:45;100525.16;;;11.64;92.35
21273;BME280;36726;52.328;10.552;2023-03-21T08:35:14;100526.09;;;11.66;90.81
21273;BME280;36726;52.328;10.552;2023-03-21T08:37:42;100522.59;;;11.70;91.40
21273;BME280;36726;52.328;10.552;2023-03-21T08:40:15;100519.13;;;11.80;91.38
21273;BME280;36726;52.328;10.552;2023-03-21T08:42:42;100517.44;;;11.91;91.16
21273;BME280;36726;52.328;10.552;2023-03-21T08:45:10;100517.56;;;12.12;90.76
21273;BME280;36726;52.328;10.552;2023-03-21T08:47:37;100522.97;;;12.31;90.21
21273;BME280;36726;52.328;10.552;2023-03-21T08:50:06;100520.34;;;12.37;88.75
21273;BME280;36726;52.328;10.552;2023-03-21T08:52:33;100521.28;;;12.53;88.67
21273;BME280;36726;52.328;10.552;2023-03-21T08:54:59;100512.50;;;12.68;88.89
21273;BME280;36726;52.328;10.552;2023-03-21T08:57:28;100526.72;;;12.83;88.69
21273;BME280;36726;52.328;10.552;2023-03-21T08:59:55;100515.25;;;12.89;86.76
21273;BME280;36726;52.328;10.552;2023-03-21T09:02:21;100518.78;;;12.95;86.82
21273;BME280;36726;52.328;10.552;2023-03-21T09:04:48;100515.31;;;13.07;86.77
21273;BME280;36726;52.328;10.552;2023-03-21T09:07:14;100519.75;;;13.18;86.41
21273;BME280;36726;52.328;10.552;2023-03-21T09:09:42;100522.41;;;13.29;86.00
21273;BME280;36726;52.328;10.552;2023-03-21T09:12:11;100523.31;;;13.38;85.34
21273;BME280;36726;52.328;10.552;2023-03-21T09:14:37;100527.75;;;13.48;85.01
21273;BME280;36726;52.328;10.552;2023-03-21T09:17:04;100512.72;;;13.53;83.54
21273;BME280;36726;52.328;10.552;2023-03-21T09:19:30;100521.56;;;13.60;83.26
21273;BME280;36726;52.328;10.552;2023-03-21T09:21:57;100518.00;;;13.66;81.42
21273;BME280;36726;52.328;10.552;2023-03-21T09:24:23;100529.50;;;13.71;81.86
21273;BME280;36726;52.328;10.552;2023-03-21T09:26:51;100525.97;;;13.67;79.23
21273;BME280;36726;52.328;10.552;2023-03-21T09:29:18;100516.22;;;13.71;80.35
21273;BME280;36726;52.328;10.552;2023-03-21T09:31:46;100519.78;;;13.70;80.61
21273;BME280;36726;52.328;10.552;2023-03-21T09:34:13;100517.09;;;13.67;80.61
21273;BME280;36726;52.328;10.552;2023-03-21T09:36:41;100522.44;;;13.64;79.54
21273;BME280;36726;52.328;10.552;2023-03-21T09:39:10;100522.44;;;13.59;78.75
21273;BME280;36726;52.328;10.552;2023-03-21T09:42:02;100525.97;;;13.60;79.24
21273;BME280;36726;52.328;10.552;2023-03-21T09:44:46;100526.88;;;13.62;79.29
21273;BME280;36726;52.328;10.552;2023-03-21T09:49:48;100518.00;;;13.75;78.29
21273;BME280;36726;52.328;10.552;2023-03-21T09:52:24;100518.91;;;13.68;77.85
21273;BME280;36726;52.328;10.552;2023-03-21T09:54:54;100514.47;;;13.70;78.14
21273;BME280;36726;52.328;10.552;2023-03-21T09:57:36;100515.38;;;13.70;77.76
21273;BME280;36726;52.328;10.552;2023-03-21T10:00:12;100520.66;;;13.67;78.13
21273;BME280;36726;52.328;10.552;2023-03-21T10:02:46;100519.78;;;13.68;78.58
21273;BME280;36726;52.328;10.552;2023-03-21T10:05:29;100518.88;;;13.69;79.95
21273;BME280;36726;52.328;10.552;2023-03-21T10:08:19;100508.25;;;13.75;79.45
21273;BME280;36726;52.328;10.552;2023-03-21T10:10:54;100505.59;;;13.72;78.87
21273;BME280;36726;52.328;10.552;2023-03-21T10:13:27;100505.59;;;13.68;78.74
21273;BME280;36726;52.328;10.552;2023-03-21T10:16:00;100510.03;;;13.82;79.56
21273;BME280;36726;52.328;10.552;2023-03-21T10:18:29;100505.56;;;13.95;78.82
21273;BME280;36726;52.328;10.552;2023-03-21T10:20:56;100503.78;;;14.07;79.15
21273;BME280;36726;52.328;10.552;2023-03-21T10:23:27;100497.53;;;14.17;77.99
21273;BME280;36726;52.328;10.552;2023-03-21T10:25:56;100496.66;;;14.29;78.04
21273;BME280;36726;52.328;10.552;2023-03-21T10:28:28;100496.56;;;14.42;77.41
21273;BME280;36726;52.328;10.552;2023-03-21T10:31:07;100497.41;;;14.66;75.41
21273;BME280;36726;52.328;10.552;2023-03-21T10:33:37;100494.72;;;14.67;72.56
21273;BME280;36726;52.328;10.552;2023-03-21T10:36:07;100497.44;;;14.53;73.03
21273;BME280;36726;52.328;10.552;2023-03-21T10:38:39;100495.69;;;14.51;75.13
21273;BME280;36726;52.328;10.552;2023-03-21T10:41:10;100505.41;;;14.52;75.39
21273;BME280;36726;52.328;10.552;2023-03-21T10:43:38;100497.44;;;14.53;75.09
21273;BME280;36726;52.328;10.552;2023-03-21T10:46:16;100490.31;;;14.60;75.16
21273;BME280;36726;52.328;10.552;2023-03-21T10:48:50;100489.38;;;14.70;73.94
21273;BME280;36726;52.328;10.552;2023-03-21T10:51:20;100492.88;;;14.78;75.05
21273;BME280;36726;52.328;10.552;2023-03-21T10:53:58;100482.19;;;14.87;76.19
21273;BME280;36726;52.328;10.552;2023-03-21T10:56:28;100483.03;;;14.94;75.76
21273;BME280;36726;52.328;10.552;2023-03-21T10:58:57;100485.63;;;15.03;75.18
21273;BME280;36726;52.328;10.552;2023-03-21T11:01:38;100471.34;;;15.11;74.38
21273;BME280;36726;52.328;10.552;2023-03-21T11:04:13;100467.78;;;15.14;73.68
21273;BME280;36726;52.328;10.552;2023-03-21T11:06:52;100473.94;;;15.23;73.50
21273;BME280;36726;52.328;10.552;2023-03-21T11:09:25;100469.41;;;15.34;72.88
21273;BME280;36726;52.328;10.552;2023-03-21T11:14:48;100464.78;;;15.59;72.66
21273;BME280;36726;52.328;10.552;2023-03-21T11:20:01;100460.28;;;15.66;72.44
21273;BME280;36726;52.328;10.552;2023-03-21T11:22:42;100456.81;;;15.57;71.66
21273;BME280;36726;52.328;10.552;2023-03-21T11:25:19;100461.38;;;15.42;71.99
21273;BME280;36726;52.328;10.552;2023-03-21T11:27:49;100456.13;;;15.30;72.32
21273;BME280;36726;52.328;10.552;2023-03-21T11:30:22;100450.91;;;15.16;71.99
21273;BME280;36726;52.328;10.552;2023-03-21T11:33:10;100451.88;;;15.00;72.54
21273;BME280;36726;52.328;10.552;2023-03-21T11:35:37;100453.69;;;14.95;72.77
21273;BME280;36726;52.328;10.552;2023-03-21T11:38:05;100458.09;;;15.01;73.30
21273;BME280;36726;52.328;10.552;2023-03-21T11:40:34;100451.03;;;14.97;72.58
21273;BME280;36726;52.328;10.552;2023-03-21T11:43:05;100454.69;;;14.81;72.25
21273;BME280;36726;52.328;10.552;2023-03-21T11:48:24;100447.72;;;14.57;73.49
21273;BME280;36726;52.328;10.552;2023-03-21T11:50:57;100441.56;;;14.49;72.56
21273;BME280;36726;52.328;10.552;2023-03-21T11:53:32;100432.78;;;14.35;72.19
21273;BME280;36726;52.328;10.552;2023-03-21T11:56:19;100437.28;;;14.13;71.86
21273;BME280;36726;52.328;10.552;2023-03-21T12:01:36;100447.00;;;14.13;74.26
21273;BME280;36726;52.328;10.552;2023-03-21T12:06:55;100434.56;;;14.24;74.72
21273;BME280;36726;52.328;10.552;2023-03-21T12:09:39;100437.25;;;14.10;75.54
21273;BME280;36726;52.328;10.552;2023-03-21T12:17:53;100423.94;;;14.16;77.55
21273;BME280;36726;52.328;10.552;2023-03-21T12:20:29;100418.59;;;14.21;77.62
21273;BME280;36726;52.328;10.552;2023-03-21T12:23:20;100422.13;;;14.30;77.74
21273;BME280;36726;52.328;10.552;2023-03-21T12:26:05;100415.03;;;14.37;78.09
21273;BME280;36726;52.328;10.552;2023-03-21T12:29:02;100400.75;;;14.48;78.51
21273;BME280;36726;52.328;10.552;2023-03-21T12:32:08;100404.19;;;14.64;78.27
21273;BME280;36726;52.328;10.552;2023-03-21T12:34:55;100404.09;;;14.81;78.10
21273;BME280;36726;52.328;10.552;2023-03-21T12:39:54;100401.41;;;14.82;77.22
21273;BME280;36726;52.328;10.552;2023-03-21T12:43:30;100389.84;;;14.89;76.98
21273;BME280;36726;52.328;10.552;2023-03-21T12:45:28;100396.88;;;14.95;76.37
21273;BME280;36726;52.328;10.552;2023-03-21T12:48:17;100394.31;;;14.87;76.28
21273;BME280;36726;52.328;10.552;2023-03-21T12:50:48;100396.97;;;14.87;77.83
21273;BME280;36726;52.328;10.552;2023-03-21T12:55:44;100388.13;;;14.79;78.15
21273;BME280;36726;52.328;10.552;2023-03-21T12:58:16;100381.06;;;14.74;78.62
21273;BME280;36726;52.328;10.552;2023-03-21T13:00:48;100377.53;;;14.70;79.14
21273;BME280;36726;52.328;10.552;2023-03-21T13:03:28;100381.16;;;14.63;80.11
21273;BME280;36726;52.328;10.552;2023-03-21T13:06:06;100374.06;;;14.59;80.13
21273;BME280;36726;52.328;10.552;2023-03-21T13:08:38;100374.97;;;14.60;80.50
21273;BME280;36726;52.328;10.552;2023-03-21T13:11:09;100370.53;;;14.57;80.35
21273;BME280;36726;52.328;10.552;2023-03-21T13:13:44;100371.44;;;14.54;80.97
21273;BME280;36726;52.328;10.552;2023-03-21T13:16:26;100372.34;;;14.50;80.81
21273;BME280;36726;52.328;10.552;2023-03-21T13:21:40;100366.09;;;14.57;82.92
21273;BME280;36726;52.328;10.552;2023-03-21T13:24:27;100354.56;;;14.55;83.28
21273;BME280;36726;52.328;10.552;2023-03-21T13:29:58;100353.78;;;14.41;83.88
21273;BME280;36726;52.328;10.552;2023-03-21T13:32:31;100350.22;;;14.41;83.06
21273;BME280;36726;52.328;10.552;2023-03-21T13:35:01;100357.41;;;14.33;83.49
21273;BME280;36726;52.328;10.552;2023-03-21T13:37:32;100349.44;;;14.24;83.94
21273;BME280;36726;52.328;10.552;2023-03-21T13:40:19;100351.22;;;14.17;85.23
21273;BME280;36726;52.328;10.552;2023-03-21T13:42:51;100344.16;;;14.12;85.40
21273;BME280;36726;52.328;10.552;2023-03-21T13:45:53;100341.50;;;14.09;85.81
21273;BME280;36726;52.328;10.552;2023-03-21T13:48:29;100338.88;;;14.07;86.27
21273;BME280;36726;52.328;10.552;2023-03-21T13:51:02;100343.34;;;13.96;86.96
21273;BME280;36726;52.328;10.552;2023-03-21T13:53:36;100339.84;;;13.91;87.31
21273;BME280;36726;52.328;10.552;2023-03-21T13:58:43;100337.16;;;13.99;88.02
21273;BME280;36726;52.328;10.552;2023-03-21T14:03:49;100336.28;;;13.92;88.01
21273;BME280;36726;52.328;10.552;2023-03-21T14:06:23;100330.09;;;13.87;87.73